Time;durP1;ratioP1;P1;durP2;ratioP2;P2;SDS_P1;SDS_P2;PMS_P1;PMS_P2;Temp;Humidity;BMP_temperature;BMP_pressure;BME280_temperature;BME280_humidity;BME280_pressure;Samples;Min_cycle;Max_cycle;Signal;HPM_P1;HPM_P2
2021/10/12 00:01:33;;;;;;;20.20;18.10;;;;;;;11.36;83.89;96216.38;5010947;28;20214;-85
2021/10/12 00:04:00;;;;;;;22.60;19.33;;;;;;;11.39;84.06;96222.97;5010981;28;20210;-85
2021/10/12 00:06:28;;;;;;;23.77;19.73;;;;;;;11.31;86.93;96212.69;5011189;28;20238;-85
2021/10/12 00:08:56;;;;;;;22.07;18.43;;;;;;;11.30;86.15;96218.81;5011352;28;20199;-85
2021/10/12 00:11:23;;;;;;;22.03;18.13;;;;;;;11.30;85.74;96227.38;5011046;28;20309;-86
2021/10/12 00:13:49;;;;;;;22.07;18.60;;;;;;;11.36;84.58;96225.88;5010809;28;20214;-85
2021/10/12 00:16:16;;;;;;;20.90;18.53;;;;;;;11.39;85.00;96220.41;5010771;28;20211;-85
2021/10/12 00:18:42;;;;;;;24.03;18.87;;;;;;;11.41;84.91;96221.03;5010765;28;20593;-85
2021/10/12 00:21:09;;;;;;;21.90;18.17;;;;;;;11.40;85.27;96222.00;5010049;28;20651;-85
2021/10/12 00:23:36;;;;;;;20.33;18.23;;;;;;;11.44;84.82;96231.03;5010554;28;20198;-85
2021/10/12 00:26:03;;;;;;;22.53;19.10;;;;;;;11.37;87.15;96236.03;5010478;28;20205;-85
2021/10/12 00:28:30;;;;;;;21.33;18.77;;;;;;;11.45;84.56;96237.78;5010653;28;20203;-84
2021/10/12 00:30:57;;;;;;;22.63;19.47;;;;;;;11.36;87.70;96234.41;5010669;28;20230;-85
2021/10/12 00:33:23;;;;;;;20.90;18.60;;;;;;;11.42;84.75;96222.66;5010168;28;20213;-85
2021/10/12 00:35:50;;;;;;;19.47;17.37;;;;;;;11.37;86.46;96227.50;5002824;28;20198;-85
2021/10/12 00:38:16;;;;;;;20.27;17.90;;;;;;;11.39;84.53;96228.94;5010538;28;20227;-85
2021/10/12 00:40:44;;;;;;;21.10;17.70;;;;;;;11.43;84.19;96225.06;5010275;28;20744;-85
2021/10/12 00:43:11;;;;;;;20.00;17.83;;;;;;;11.46;84.49;96221.34;5010214;28;20827;-86
2021/10/12 00:45:38;;;;;;;21.07;17.77;;;;;;;11.46;84.45;96215.38;5010117;28;20206;-85
2021/10/12 00:48:07;;;;;;;22.37;16.40;;;;;;;11.44;83.78;96218.13;5010468;28;20563;-85
2021/10/12 00:50:34;;;;;;;20.20;16.63;;;;;;;11.41;84.37;96223.63;5010678;28;20229;-85
2021/10/12 00:53:01;;;;;;;23.27;17.63;;;;;;;11.36;85.16;96221.53;5010585;28;20210;-86
2021/10/12 00:55:32;;;;;;;19.17;16.53;;;;;;;11.37;84.08;96217.97;5010186;28;20577;-85
2021/10/12 00:58:00;;;;;;;22.97;17.37;;;;;;;11.42;84.64;96225.22;5009867;28;20234;-85
2021/10/12 01:00:27;;;;;;;21.47;17.27;;;;;;;11.34;85.87;96225.25;5010296;28;20195;-85
2021/10/12 01:02:53;;;;;;;20.40;17.73;;;;;;;11.36;84.72;96215.56;5009562;28;20290;-85
2021/10/12 01:05:20;;;;;;;22.63;18.03;;;;;;;11.32;86.32;96217.69;5010056;28;20199;-86
2021/10/12 01:07:46;;;;;;;19.87;17.67;;;;;;;11.29;86.27;96219.78;5009850;28;20690;-85
2021/10/12 01:10:13;;;;;;;19.90;16.80;;;;;;;11.30;86.21;96217.06;5009965;28;20198;-85
2021/10/12 01:12:40;;;;;;;20.43;17.17;;;;;;;11.28;86.04;96218.19;5009749;28;20211;-85
2021/10/12 01:15:09;;;;;;;19.07;17.10;;;;;;;11.30;86.69;96208.50;5009768;28;20199;-85
2021/10/12 01:17:37;;;;;;;18.57;16.57;;;;;;;11.25;86.27;96208.19;5009761;28;20230;-86
2021/10/12 01:20:05;;;;;;;18.93;16.63;;;;;;;11.28;85.36;96200.13;5009951;28;20202;-86
2021/10/12 01:22:33;;;;;;;20.93;16.90;;;;;;;11.24;85.99;96198.84;5009312;28;20234;-85
2021/10/12 01:25:01;;;;;;;22.33;17.73;;;;;;;11.24;85.60;96184.19;5009025;28;20203;-85
2021/10/12 01:27:27;;;;;;;19.87;16.53;;;;;;;11.28;85.33;96179.50;5010139;28;20623;-85
2021/10/12 01:29:54;;;;;;;20.67;16.77;;;;;;;11.29;85.17;96184.50;5009929;28;20214;-85
2021/10/12 01:32:20;;;;;;;20.33;17.20;;;;;;;11.26;85.25;96171.13;5009564;28;20222;-85
2021/10/12 01:34:47;;;;;;;20.57;16.80;;;;;;;11.26;84.75;96164.22;5009553;28;20206;-85
2021/10/12 01:37:13;;;;;;;21.90;17.70;;;;;;;11.24;84.75;96171.31;5009514;28;20234;-86
2021/10/12 01:39:41;;;;;;;18.77;16.13;;;;;;;11.28;84.13;96170.00;5009913;28;20206;-86
2021/10/12 01:42:08;;;;;;;18.67;16.63;;;;;;;11.30;83.72;96162.09;5009760;28;20615;-84
2021/10/12 01:44:34;;;;;;;20.97;17.23;;;;;;;11.23;84.49;96166.31;5009486;28;20595;-85
2021/10/12 01:47:01;;;;;;;17.77;15.87;;;;;;;11.20;85.42;96164.88;5009716;28;20227;-85
2021/10/12 01:49:27;;;;;;;19.73;15.87;;;;;;;11.24;84.70;96171.31;5009697;28;20199;-85
2021/10/12 01:51:54;;;;;;;19.47;16.07;;;;;;;11.18;86.04;96171.16;5009486;28;20223;-85
2021/10/12 01:54:22;;;;;;;19.97;16.90;;;;;;;11.18;85.18;96163.41;5009251;28;20210;-85
2021/10/12 01:56:51;;;;;;;19.97;16.13;;;;;;;11.15;85.26;96161.19;5009622;28;20229;-85
2021/10/12 01:59:18;;;;;;;19.20;16.47;;;;;;;11.18;84.71;96159.06;5009600;28;20716;-85
2021/10/12 02:01:45;;;;;;;18.80;15.60;;;;;;;11.17;85.14;96156.66;5009699;28;20230;-86
2021/10/12 02:04:12;;;;;;;20.13;15.47;;;;;;;11.17;84.83;96159.22;5009028;28;20203;-85
2021/10/12 02:06:38;;;;;;;18.73;15.70;;;;;;;11.13;86.02;96156.22;5009476;28;20565;-85
2021/10/12 02:09:08;;;;;;;19.53;16.17;;;;;;;11.19;85.25;96146.97;5009438;28;20195;-85
2021/10/12 02:11:34;;;;;;;20.07;15.93;;;;;;;11.21;85.71;96145.06;5009269;28;20828;-86
2021/10/12 02:14:02;;;;;;;20.73;16.93;;;;;;;11.26;84.46;96140.19;5009017;28;20199;-85
2021/10/12 02:16:29;;;;;;;18.70;16.10;;;;;;;11.26;85.31;96137.63;5005413;28;20203;-85
2021/10/12 02:18:55;;;;;;;18.50;15.93;;;;;;;11.27;84.40;96134.09;5008804;28;20223;-85
2021/10/12 02:21:22;;;;;;;23.43;17.30;;;;;;;11.27;84.58;96128.94;5009129;28;20241;-85
2021/10/12 02:23:49;;;;;;;20.97;16.27;;;;;;;11.26;84.60;96128.13;5009398;28;20199;-86
2021/10/12 02:26:15;;;;;;;21.53;17.53;;;;;;;11.23;84.72;96130.22;5009258;28;20882;-85
2021/10/12 02:28:42;;;;;;;20.33;16.93;;;;;;;11.24;84.78;96130.06;5009442;28;20608;-85
2021/10/12 02:31:09;;;;;;;21.90;16.70;;;;;;;11.24;85.11;96132.63;5008972;28;20227;-85
2021/10/12 02:33:36;;;;;;;23.60;17.50;;;;;;;11.24;84.78;96135.22;5009185;28;20207;-85
2021/10/12 02:36:02;;;;;;;20.07;17.03;;;;;;;11.25;85.10;96120.56;5009602;28;20202;-85
2021/10/12 02:38:29;;;;;;;22.37;17.77;;;;;;;11.25;84.71;96120.56;5012781;28;20226;-86
2021/10/12 02:40:55;;;;;;;24.33;18.97;;;;;;;11.21;85.61;96121.84;5012390;28;20237;-85
2021/10/12 02:43:22;;;;;;;19.73;17.07;;;;;;;11.23;85.28;96133.59;5012541;28;20616;-85
2021/10/12 02:45:48;;;;;;;20.93;17.40;;;;;;;11.18;85.48;96129.91;5012289;28;20209;-85
2021/10/12 02:48:16;;;;;;;21.43;17.97;;;;;;;11.16;85.09;96130.06;5012053;28;20581;-85
2021/10/12 02:50:43;;;;;;;19.37;17.30;;;;;;;11.13;85.91;96124.47;5012540;28;20218;-85
2021/10/12 02:53:10;;;;;;;21.83;17.33;;;;;;;11.13;85.29;96129.63;5012340;28;20207;-85
2021/10/12 02:55:37;;;;;;;22.13;18.63;;;;;;;11.10;86.42;96122.22;5012275;28;20206;-86
2021/10/12 02:58:04;;;;;;;22.77;17.97;;;;;;;11.15;85.27;96107.88;5012454;28;20226;-85
2021/10/12 03:00:30;;;;;;;22.83;18.00;;;;;;;11.18;85.27;96107.53;5012393;28;20233;-86
2021/10/12 03:02:57;;;;;;;23.53;18.37;;;;;;;11.19;84.82;96103.16;5012200;28;20218;-85
2021/10/12 03:05:25;;;;;;;23.27;18.00;;;;;;;11.11;85.63;96101.44;5012714;28;20253;-85
2021/10/12 03:07:51;;;;;;;20.77;17.90;;;;;;;11.13;84.84;96096.13;5012109;28;20733;-85
2021/10/12 03:10:18;;;;;;;22.20;17.63;;;;;;;11.11;85.06;96100.63;5012313;28;20213;-86
2021/10/12 03:12:45;;;;;;;22.07;18.07;;;;;;;11.12;85.58;96099.66;5012142;28;20237;-85
2021/10/12 03:15:11;;;;;;;23.53;18.03;;;;;;;11.11;85.54;96100.63;5011589;28;20203;-85
2021/10/12 03:17:38;;;;;;;23.60;17.47;;;;;;;11.11;85.66;96085.19;5011507;28;20207;-85
2021/10/12 03:20:06;;;;;;;22.40;17.37;;;;;;;11.15;85.30;96095.00;5011776;28;20206;-85
2021/10/12 03:22:34;;;;;;;21.53;17.80;;;;;;;11.09;86.04;96095.66;5011246;28;20325;-85
2021/10/12 03:25:01;;;;;;;22.63;17.20;;;;;;;11.12;85.74;96091.94;5011050;28;20199;-85
2021/10/12 03:27:27;;;;;;;23.00;18.47;;;;;;;11.08;86.05;96083.72;5011757;28;20206;-85
2021/10/12 03:29:54;;;;;;;25.27;18.37;;;;;;;11.13;85.11;96080.66;5011336;28;20195;-85
2021/10/12 03:32:21;;;;;;;24.03;18.17;;;;;;;11.15;85.21;96091.63;5011443;28;20215;-85
2021/10/12 03:34:47;;;;;;;21.07;17.00;;;;;;;11.14;85.98;96087.44;5011045;28;20195;-85
2021/10/12 03:37:14;;;;;;;22.50;17.83;;;;;;;11.16;85.50;96075.94;5012032;28;20214;-86
2021/10/12 03:39:41;;;;;;;23.20;18.10;;;;;;;11.14;85.60;96066.81;5011690;28;20227;-86
2021/10/12 03:42:08;;;;;;;22.13;17.63;;;;;;;11.05;86.41;96063.44;5011240;28;20233;-85
2021/10/12 03:44:34;;;;;;;21.13;17.37;;;;;;;11.07;85.55;96052.00;5011344;28;20206;-84
2021/10/12 03:47:01;;;;;;;23.03;17.43;;;;;;;11.05;85.91;96041.06;5011050;28;20203;-85
2021/10/12 03:49:28;;;;;;;22.63;18.03;;;;;;;11.10;85.29;96047.50;5011126;28;20199;-85
2021/10/12 03:51:54;;;;;;;21.47;18.20;;;;;;;11.08;85.20;96048.47;5011246;28;20764;-85
2021/10/12 03:54:21;;;;;;;24.43;17.87;;;;;;;11.10;84.86;96042.34;5010551;28;20685;-85
2021/10/12 03:56:49;;;;;;;22.13;17.13;;;;;;;11.08;85.07;96052.81;5010392;28;20195;-86
2021/10/12 03:59:15;;;;;;;21.77;16.93;;;;;;;11.08;85.02;96042.50;5010914;28;20227;-85
2021/10/12 04:01:42;;;;;;;19.60;16.43;;;;;;;11.07;84.98;96041.69;5011075;28;20245;-86
2021/10/12 04:04:08;;;;;;;22.80;17.37;;;;;;;11.08;84.37;96033.00;5005750;28;20214;-86
2021/10/12 04:06:34;;;;;;;24.27;18.30;;;;;;;11.10;84.47;96042.34;4991386;28;20207;-85
2021/10/12 04:09:01;;;;;;;21.73;17.50;;;;;;;11.04;84.73;96030.91;4991481;28;20226;-85
2021/10/12 04:11:27;;;;;;;21.53;16.23;;;;;;;11.06;84.72;96034.13;4991193;28;20228;-85
2021/10/12 04:13:55;;;;;;;21.03;16.90;;;;;;;11.05;84.52;96029.94;4991042;28;20235;-85
2021/10/12 04:16:22;;;;;;;24.43;17.77;;;;;;;11.05;84.58;96025.59;5009038;28;20214;-85
2021/10/12 04:18:48;;;;;;;22.77;17.20;;;;;;;11.03;84.86;96024.97;5010798;28;20231;-85
2021/10/12 04:21:15;;;;;;;21.57;17.87;;;;;;;11.04;84.70;96018.84;5010539;28;20230;-85
2021/10/12 04:23:41;;;;;;;22.77;17.73;;;;;;;11.02;85.05;96017.41;5010874;28;20210;-85
2021/10/12 04:26:11;;;;;;;21.43;17.97;;;;;;;11.06;84.69;96016.09;5010836;28;20302;-85
2021/10/12 04:28:37;;;;;;;24.53;18.77;;;;;;;11.08;85.02;96007.22;5010888;28;20651;-85
2021/10/12 04:31:05;;;;;;;20.83;17.83;;;;;;;11.04;84.74;96005.97;5010665;28;20277;-86
2021/10/12 04:33:32;;;;;;;21.03;17.07;;;;;;;11.00;84.96;96001.31;5011017;28;20201;-84
2021/10/12 04:35:58;;;;;;;22.83;17.77;;;;;;;10.91;85.86;95999.75;5011422;28;20207;-85
2021/10/12 04:38:25;;;;;;;23.33;17.77;;;;;;;10.92;85.57;95998.78;5009275;28;20341;-84
2021/10/12 04:40:51;;;;;;;22.37;18.47;;;;;;;10.93;85.97;95998.63;5008837;28;20736;-85
2021/10/12 04:43:37;;;;;;;23.17;18.03;;;;;;;10.91;85.78;95985.09;5001659;28;20191;-87
2021/10/12 04:46:05;;;;;;;24.83;20.17;;;;;;;10.84;86.03;95981.56;5019678;23;20208;-88
2021/10/12 04:48:42;;;;;;;30.17;23.40;;;;;;;10.88;85.54;95977.69;4978075;28;20592;-85
2021/10/12 04:51:08;;;;;;;22.93;18.60;;;;;;;10.87;85.66;95981.25;4985106;28;20222;-88
2021/10/12 04:53:35;;;;;;;22.63;17.50;;;;;;;10.87;85.43;95975.28;4989957;28;20573;-88
2021/10/12 04:56:05;;;;;;;21.50;17.57;;;;;;;10.86;85.90;95977.06;4987518;28;20210;-88
2021/10/12 04:58:32;;;;;;;24.60;18.90;;;;;;;10.84;85.69;95973.03;4964997;28;20719;-87
2021/10/12 05:01:05;;;;;;;24.00;18.33;;;;;;;10.83;86.59;95984.31;4967614;28;20204;-88
2021/10/12 05:03:33;;;;;;;20.97;17.50;;;;;;;10.85;86.54;95977.22;4964922;28;20197;-87
2021/10/12 05:06:07;;;;;;;22.53;18.57;;;;;;;10.83;86.30;95984.31;4956028;28;20216;-88
2021/10/12 05:08:34;;;;;;;24.40;18.43;;;;;;;10.81;86.00;95974.19;4952094;28;20220;-88
2021/10/12 05:11:04;;;;;;;22.70;17.07;;;;;;;10.81;86.71;95979.34;4970225;28;20210;-88
2021/10/12 05:13:31;;;;;;;23.47;18.00;;;;;;;10.78;86.68;95984.81;4970177;28;20543;-88
2021/10/12 05:15:59;;;;;;;27.57;21.83;;;;;;;10.72;87.77;95991.47;4968996;28;20223;-87
2021/10/12 05:18:31;;;;;;;34.57;27.97;;;;;;;10.77;87.03;95992.75;4970122;28;20602;-87
2021/10/12 05:20:59;;;;;;;26.27;20.23;;;;;;;10.78;87.15;95995.13;4970105;28;20286;-87
2021/10/12 05:23:25;;;;;;;23.10;18.43;;;;;;;10.76;87.27;96002.22;4969872;28;20203;-89
2021/10/12 05:25:52;;;;;;;24.57;17.70;;;;;;;10.76;87.44;95991.13;4970363;28;20204;-89
2021/10/12 05:28:18;;;;;;;25.13;19.03;;;;;;;10.78;87.86;95986.59;4970595;28;20204;-88
2021/10/12 05:30:45;;;;;;;23.93;18.77;;;;;;;10.78;87.33;95986.59;4968258;28;20208;-87
2021/10/12 05:33:13;;;;;;;26.47;19.10;;;;;;;10.75;88.24;95987.75;4969883;28;20215;-88
2021/10/12 05:35:40;;;;;;;23.43;18.27;;;;;;;10.79;87.37;95995.91;4970023;28;20243;-89
2021/10/12 05:38:08;;;;;;;40.83;32.23;;;;;;;10.81;87.29;95987.06;4969895;28;20251;-89
2021/10/12 05:40:34;;;;;;;33.60;26.10;;;;;;;10.76;90.42;95991.94;4969651;28;20231;-88
2021/10/12 05:43:01;;;;;;;29.10;21.47;;;;;;;10.79;89.02;95996.72;4970191;28;20211;-88
2021/10/12 05:45:27;;;;;;;24.83;20.53;;;;;;;10.78;90.19;95996.88;4969400;28;20196;-89
2021/10/12 05:47:55;;;;;;;23.17;19.50;;;;;;;10.79;88.80;96001.88;4970114;28;20232;-88
2021/10/12 05:50:27;;;;;;;32.60;25.70;;;;;;;10.85;87.34;95998.63;4969752;28;20682;-89
2021/10/12 05:53:04;;;;;;;29.37;23.00;;;;;;;10.87;87.67;95990.75;4970051;28;20211;-87
2021/10/12 05:55:45;;;;;;;23.70;19.57;;;;;;;10.88;86.92;95990.56;4969849;28;20239;-88
2021/10/12 05:58:13;;;;;;;25.73;18.40;;;;;;;10.91;87.04;95990.25;4967231;28;20575;-88
2021/10/12 06:00:42;;;;;;;26.03;18.83;;;;;;;10.97;86.59;95981.81;4965053;28;20228;-88
2021/10/12 06:03:09;;;;;;;27.30;20.13;;;;;;;10.90;86.84;95980.91;4957860;28;20208;-88
2021/10/12 06:05:35;;;;;;;24.40;18.67;;;;;;;10.86;86.42;95977.06;4969656;28;20303;-88
2021/10/12 06:08:02;;;;;;;25.73;19.43;;;;;;;10.91;86.39;95974.00;4969617;28;20230;-88
2021/10/12 06:10:29;;;;;;;27.40;18.90;;;;;;;10.95;85.73;95970.09;4970416;28;20200;-89
2021/10/12 06:12:57;;;;;;;25.17;19.57;;;;;;;10.96;85.94;95980.25;4973562;28;20208;-89
2021/10/12 06:15:24;;;;;;;25.30;18.83;;;;;;;10.91;87.68;95974.78;4972836;28;20214;-88
2021/10/12 06:17:50;;;;;;;24.93;19.33;;;;;;;10.94;87.18;95973.66;4973104;28;20224;-89
2021/10/12 06:20:17;;;;;;;22.90;18.67;;;;;;;10.95;86.34;95972.69;4973166;28;20230;-89
2021/10/12 06:22:48;;;;;;;24.10;18.47;;;;;;;10.97;86.19;95975.88;4972985;28;20232;-89
2021/10/12 06:25:14;;;;;;;25.27;19.07;;;;;;;10.93;86.07;95959.97;4972907;28;20204;-88
2021/10/12 06:27:43;;;;;;;23.13;18.67;;;;;;;10.88;86.44;95971.75;4973905;28;20219;-89
2021/10/12 06:30:12;;;;;;;26.17;18.67;;;;;;;10.94;86.17;95977.03;4971986;28;20203;-89
2021/10/12 06:32:39;;;;;;;24.07;18.97;;;;;;;10.89;86.29;95981.88;4972512;28;20208;-89
2021/10/12 06:35:06;;;;;;;23.17;18.53;;;;;;;10.87;86.69;95972.72;4972683;28;20212;-89
2021/10/12 06:37:33;;;;;;;25.23;18.80;;;;;;;10.91;85.92;95971.41;4972522;28;20576;-89
2021/10/12 06:40:00;;;;;;;24.13;19.60;;;;;;;10.96;85.92;95977.69;4972663;28;20224;-89
2021/10/12 06:42:26;;;;;;;24.83;18.47;;;;;;;10.96;86.29;95982.81;4971968;28;20204;-88
2021/10/12 06:44:53;;;;;;;26.67;22.47;;;;;;;10.88;86.59;95974.31;4973182;28;20211;-88
2021/10/12 06:47:24;;;;;;;22.70;18.30;;;;;;;10.89;86.15;95974.16;4972273;28;20224;-89
2021/10/12 06:49:50;;;;;;;24.07;18.80;;;;;;;10.91;86.18;95972.22;4965783;28;20726;-88
2021/10/12 06:52:17;;;;;;;24.27;19.63;;;;;;;10.96;86.68;95977.69;4959334;28;20209;-89
2021/10/12 06:54:44;;;;;;;22.63;18.87;;;;;;;11.00;86.31;95975.53;4972979;28;20200;-89
2021/10/12 06:57:12;;;;;;;22.37;18.70;;;;;;;11.04;86.04;95981.97;4972298;28;20224;-88
2021/10/12 06:59:38;;;;;;;23.63;17.57;;;;;;;11.02;86.17;95978.75;4973168;28;20216;-87
2021/10/12 07:02:05;;;;;;;23.03;18.30;;;;;;;11.04;85.88;95977.63;4972874;28;20572;-88
2021/10/12 07:04:33;;;;;;;23.27;17.77;;;;;;;11.10;86.12;95973.56;4972449;28;20204;-88
2021/10/12 07:07:02;;;;;;;23.17;19.13;;;;;;;11.07;86.17;95982.44;4972656;28;20711;-88
2021/10/12 07:09:29;;;;;;;25.70;18.80;;;;;;;11.10;85.87;95985.66;4970645;28;20224;-88
2021/10/12 07:11:55;;;;;;;24.63;19.27;;;;;;;11.11;85.67;95988.06;4969771;28;20211;-88
2021/10/12 07:14:22;;;;;;;22.17;18.40;;;;;;;11.12;86.11;95988.84;4972192;28;20207;-88
2021/10/12 07:16:48;;;;;;;24.80;18.83;;;;;;;11.13;85.53;95985.31;4973251;28;20300;-88
2021/10/12 07:19:15;;;;;;;23.23;18.40;;;;;;;11.12;86.07;95986.28;4971762;28;20227;-89
2021/10/12 07:21:43;;;;;;;24.23;19.30;;;;;;;11.07;86.49;95985.00;4971365;28;20211;-89
2021/10/12 07:24:09;;;;;;;24.50;20.10;;;;;;;10.98;87.09;95986.00;4971629;28;20667;-89
2021/10/12 07:26:36;;;;;;;33.50;27.63;;;;;;;11.06;86.97;95988.56;4971651;28;20242;-89
2021/10/12 07:29:03;;;;;;;31.60;25.90;;;;;;;11.05;87.26;95994.69;4971913;28;20215;-89
2021/10/12 07:31:29;;;;;;;25.20;20.13;;;;;;;11.05;87.16;95996.44;4971925;28;20275;-89
2021/10/12 07:34:06;;;;;;;25.17;19.17;;;;;;;11.14;86.32;95990.28;4971836;28;20267;-89
2021/10/12 07:36:33;;;;;;;23.10;18.83;;;;;;;11.15;87.07;95989.31;4969625;28;20215;-89
2021/10/12 07:39:01;;;;;;;23.00;19.40;;;;;;;11.14;87.00;95985.16;4969005;28;20488;-89
2021/10/12 07:41:27;;;;;;;25.53;18.73;;;;;;;11.12;86.59;95988.84;4971013;28;20196;-88
2021/10/12 07:43:54;;;;;;;24.40;18.60;;;;;;;11.08;86.75;95984.03;4963549;28;20220;-89
2021/10/12 07:46:20;;;;;;;23.47;19.27;;;;;;;11.13;86.89;95987.88;4968243;28;20242;-90
2021/10/12 07:48:47;;;;;;;26.63;19.37;;;;;;;11.14;86.65;95986.91;4969416;28;20208;-89
2021/10/12 07:51:14;;;;;;;22.70;18.83;;;;;;;11.07;87.31;95995.31;4968790;28;20200;-89
2021/10/12 07:53:40;;;;;;;24.90;18.43;;;;;;;11.09;87.48;95990.00;4966434;28;20210;-90
2021/10/12 07:56:11;;;;;;;25.17;19.67;;;;;;;11.18;87.48;95990.75;4969857;28;20211;-90
2021/10/12 07:58:37;;;;;;;25.07;18.53;;;;;;;11.21;87.85;95982.66;4971241;28;20627;-90
2021/10/12 08:01:04;;;;;;;21.93;18.57;;;;;;;11.19;87.22;95985.41;4970830;28;20212;-89
2021/10/12 08:03:31;;;;;;;23.83;18.57;;;;;;;11.19;87.57;95982.03;4971395;28;20207;-90
2021/10/12 08:05:58;;;;;;;22.87;18.00;;;;;;;11.25;87.56;95987.31;4968423;28;20660;-89
2021/10/12 08:08:24;;;;;;;22.83;18.20;;;;;;;11.19;87.85;95988.00;4971955;28;20300;-89
2021/10/12 08:10:51;;;;;;;21.07;17.70;;;;;;;11.28;87.09;95991.34;4970786;28;20197;-90
2021/10/12 08:13:21;;;;;;;22.90;19.10;;;;;;;11.33;87.79;95989.06;4971297;28;20220;-89
2021/10/12 08:15:51;;;;;;;24.53;18.70;;;;;;;11.25;87.12;95983.94;4970887;28;20655;-89
2021/10/12 08:18:18;;;;;;;23.37;18.17;;;;;;;11.20;87.14;95992.19;4969127;28;20207;-89
2021/10/12 08:20:45;;;;;;;21.33;17.30;;;;;;;11.26;86.87;95982.97;4962076;28;20339;-89
2021/10/12 08:23:27;;;;;;;24.37;18.63;;;;;;;11.34;86.75;95983.72;4969820;28;20207;-89
2021/10/12 08:25:53;;;;;;;22.33;17.73;;;;;;;11.38;86.81;95979.00;4971725;28;20204;-89
2021/10/12 08:28:21;;;;;;;21.80;17.23;;;;;;;11.36;86.28;95976.59;4973758;28;20640;-88
2021/10/12 08:30:48;;;;;;;23.83;17.13;;;;;;;11.26;86.22;95972.66;4973255;28;20196;-88
2021/10/12 08:33:14;;;;;;;22.73;17.83;;;;;;;11.28;86.83;95968.94;4972961;28;20208;-88
2021/10/12 08:35:41;;;;;;;23.13;17.03;;;;;;;11.24;87.21;95970.25;4974047;28;20204;-89
2021/10/12 08:38:07;;;;;;;21.03;16.40;;;;;;;11.24;86.46;95966.88;4971574;28;20228;-88
2021/10/12 08:40:34;;;;;;;19.00;16.33;;;;;;;11.16;86.81;95969.50;4972425;28;20247;-88
2021/10/12 08:43:00;;;;;;;18.80;14.93;;;;;;;11.22;86.63;95966.22;4974093;28;20951;-88
2021/10/12 08:45:30;;;;;;;18.80;15.97;;;;;;;11.25;86.71;95963.31;4972092;28;20211;-88
2021/10/12 08:47:58;;;;;;;19.93;14.97;;;;;;;11.32;86.03;95961.66;4971354;28;20231;-88
2021/10/12 08:50:25;;;;;;;17.17;13.80;;;;;;;11.25;85.54;95960.75;4972402;28;20200;-89
2021/10/12 08:52:52;;;;;;;17.07;13.23;;;;;;;11.17;84.97;95963.34;4972776;28;20587;-89
2021/10/12 08:55:18;;;;;;;18.00;13.80;;;;;;;11.22;85.19;95966.22;4970455;28;20208;-89
2021/10/12 08:57:47;;;;;;;15.13;13.00;;;;;;;11.25;84.85;95958.97;4970599;28;20236;-89
2021/10/12 09:00:15;;;;;;;13.73;11.47;;;;;;;11.23;83.10;95958.34;4972577;28;20228;-88
2021/10/12 09:05:53;;;;;;;14.73;10.47;;;;;;;11.25;82.25;95948.66;4972570;28;20207;-89
2021/10/12 09:08:24;;;;;;;14.40;11.27;;;;;;;11.33;82.97;95950.38;4970567;28;20258;-88
2021/10/12 09:10:51;;;;;;;11.47;9.67;;;;;;;11.27;82.96;95944.13;4969680;28;20614;-88
2021/10/12 09:13:18;;;;;;;11.33;9.40;;;;;;;11.34;82.08;95952.78;4969819;28;20595;-89
2021/10/12 09:16:03;;;;;;;10.33;9.13;;;;;;;11.35;81.87;95954.38;4970103;28;20208;-89
2021/10/12 09:18:49;;;;;;;11.67;9.20;;;;;;;11.36;82.93;95944.88;4969753;28;20200;-89
2021/10/12 09:21:16;;;;;;;11.77;10.20;;;;;;;11.31;82.11;95945.41;4969409;28;20683;-90
2021/10/12 09:23:43;;;;;;;12.13;10.53;;;;;;;11.30;83.81;95937.84;4969757;28;20290;-90
2021/10/12 09:26:19;;;;;;;13.07;11.03;;;;;;;11.27;83.67;95935.59;4969898;28;20207;-90
2021/10/12 09:28:45;;;;;;;12.73;11.43;;;;;;;11.20;85.09;95944.97;4969445;28;20667;-90
2021/10/12 09:31:12;;;;;;;29.63;22.40;;;;;;;11.04;87.41;95949.28;4969260;28;20204;-90
2021/10/12 09:33:48;;;;;;;19.47;14.77;;;;;;;11.02;87.23;95943.47;4969512;28;20729;-89
2021/10/12 09:36:27;;;;;;;14.57;11.17;;;;;;;10.99;87.10;95941.25;4973137;28;20219;-90
2021/10/12 09:38:53;;;;;;;11.80;10.60;;;;;;;11.10;85.55;95941.84;4976802;28;20207;-89
2021/10/12 09:41:25;;;;;;;13.63;10.20;;;;;;;11.06;85.52;95931.88;4969589;28;20220;-90
2021/10/12 09:44:09;;;;;;;11.50;10.20;;;;;;;11.11;85.29;95948.59;4969597;28;20208;-90
2021/10/12 09:46:36;;;;;;;12.10;10.00;;;;;;;11.12;85.78;95937.31;4972578;28;20285;-90
2021/10/12 09:49:15;;;;;;;10.50;9.40;;;;;;;11.05;85.76;95932.84;4973475;28;20211;-89
2021/10/12 09:51:56;;;;;;;12.10;9.40;;;;;;;11.10;85.14;95928.94;4973353;28;20206;-91
2021/10/12 09:54:23;;;;;;;12.07;9.90;;;;;;;11.16;85.45;95929.06;4973412;28;20200;-89
2021/10/12 09:56:50;;;;;;;12.37;10.27;;;;;;;11.16;88.32;95923.13;4973601;28;20220;-90
2021/10/12 09:59:17;;;;;;;13.10;11.13;;;;;;;11.22;86.76;95920.66;4972892;28;20204;-90
2021/10/12 10:01:46;;;;;;;15.60;11.27;;;;;;;11.32;87.60;95921.22;4972969;28;20224;-91
2021/10/12 10:04:18;;;;;;;12.57;11.27;;;;;;;11.45;86.18;95915.47;4972902;28;20668;-91
2021/10/12 10:06:46;;;;;;;15.00;11.60;;;;;;;11.48;85.54;95919.50;4973428;28;20294;-91
2021/10/12 10:09:14;;;;;;;17.13;13.93;;;;;;;11.42;86.21;95913.25;4973110;28;20216;-90
2021/10/12 10:11:42;;;;;;;26.53;22.43;;;;;;;11.45;87.58;95912.09;4972766;28;20192;-90
2021/10/12 10:14:10;;;;;;;16.97;13.97;;;;;;;11.39;86.29;95911.00;4972876;28;20204;-91
2021/10/12 10:16:38;;;;;;;17.70;13.97;;;;;;;11.37;86.59;95910.38;4973676;28;20311;-90
2021/10/12 10:19:08;;;;;;;18.53;13.03;;;;;;;11.38;86.37;95902.47;4973221;28;20195;-91
2021/10/12 10:21:42;;;;;;;15.47;12.87;;;;;;;11.21;86.81;95902.78;4973089;28;20221;-90
2021/10/12 10:24:11;;;;;;;16.40;13.03;;;;;;;11.26;86.76;95898.72;4972618;28;20201;-91
2021/10/12 10:26:39;;;;;;;14.40;12.27;;;;;;;11.27;85.78;95897.75;4972919;28;20216;-91
2021/10/12 10:29:24;;;;;;;17.50;12.57;;;;;;;11.18;85.59;95892.81;4973149;28;20255;-92
2021/10/12 10:31:53;;;;;;;15.47;12.67;;;;;;;11.13;87.57;95884.81;4972830;28;20255;-90
2021/10/12 10:34:36;;;;;;;15.80;12.23;;;;;;;11.17;87.55;95880.88;4972738;28;20724;-91
2021/10/12 10:37:29;;;;;;;12.60;10.17;;;;;;;11.47;91.50;95871.47;4973694;28;20227;-91
2021/10/12 10:40:26;;;;;;;15.00;12.13;;;;;;;11.47;85.82;95864.53;4972166;28;20238;-90
2021/10/12 10:42:58;;;;;;;14.73;12.57;;;;;;;11.46;86.61;95860.38;4972674;28;20200;-90
2021/10/12 10:45:45;;;;;;;14.73;12.30;;;;;;;11.51;85.17;95860.66;4972513;28;20208;-91
2021/10/12 10:48:13;;;;;;;14.67;12.00;;;;;;;11.52;85.67;95857.09;4972443;28;20227;-90
2021/10/12 10:50:40;;;;;;;16.60;12.83;;;;;;;11.54;86.67;95852.56;4972224;28;20204;-89
2021/10/12 10:53:10;;;;;;;22.73;20.27;;;;;;;11.65;86.12;95853.91;4972946;28;20208;-90
2021/10/12 10:55:39;;;;;;;17.57;12.97;;;;;;;11.68;85.39;95848.41;4971714;28;20203;-90
2021/10/12 10:58:08;;;;;;;13.40;11.43;;;;;;;11.69;83.86;95839.69;4972548;28;20224;-90
2021/10/12 11:00:43;;;;;;;14.27;11.47;;;;;;;11.78;85.05;95841.22;4971846;28;20594;-90
2021/10/12 11:03:30;;;;;;;14.03;11.23;;;;;;;11.88;84.79;95835.81;4972279;28;20204;-90
2021/10/12 11:05:57;;;;;;;11.97;10.63;;;;;;;11.77;82.56;95837.03;4971810;28;20212;-90
2021/10/12 11:08:27;;;;;;;12.17;10.27;;;;;;;11.70;83.71;95825.81;4972494;28;20208;-89
2021/10/12 11:10:56;;;;;;;11.90;10.47;;;;;;;11.66;84.21;95830.50;4972118;28;20616;-89
2021/10/12 11:13:28;;;;;;;10.40;9.37;;;;;;;11.55;81.54;95818.03;4973026;28;20200;-89
2021/10/12 11:15:54;;;;;;;9.53;8.53;;;;;;;11.47;81.26;95818.13;4972036;28;20211;-90
2021/10/12 11:18:22;;;;;;;10.43;9.07;;;;;;;11.49;81.54;95818.75;4965968;28;20698;-90
2021/10/12 11:20:51;;;;;;;12.17;9.93;;;;;;;11.49;81.77;95812.81;4970570;28;20239;-90
2021/10/12 11:23:24;;;;;;;17.90;16.03;;;;;;;11.55;82.57;95817.22;4971962;28;20204;-89
2021/10/12 11:26:01;;;;;;;14.97;11.50;;;;;;;11.55;82.28;95812.06;4971748;28;20274;-89